Terminal Aerodrome Forecast
Issued by NWS Tampa Bay Area, FL

Home | Current Version | Previous Version | Text Only | Print | Product List | Glossary On
Versions: 1 2 3 4 5 6 7 8 9 10 11 12 13 14 15 16 17 18 19 20 21 22 23 24 25 26 27 28 29 30 31 32 33
000
FTUS42 KTBW 280520
TAFTPA
TAF
KTPA 280520Z 2806/2906 06003KT P6SM VCTS SCT030CB BKN250
     FM280700 VRB03KT P6SM FEW030 SCT250
     FM281000 VRB03KT P6SM FEW250
     FM281500 22006KT P6SM SCT030
     FM282000 28007KT P6SM VCTS SCT040CB SCT250=

USA.gov is the U.S. government's official web portal to all federal, state and local government web resources and services.